Aérodrome :
LOGIN :

S'inscrire | Disclaimer

   EN    FR    IT 

 










Légende :    VFR   VFR Marginal   IFR   IFR Intensif   IFR Très Intensif
Visi : 
Plafond : 
>= 8 km
>= 3000ft
5 à 8 km
1000 à 3000 ft
1500m à 5 km
500 à 1000 ft
800 à 1500m
200 à 500 ft
< 800m
< 200 ft
Symboles :   Orages  Brouillard  Fortes neiges  Fortes précipitations  Vent > 20 kt
SIGMETs :   Divers  Orages  Givrage  Turbulence  Onde Orograph.  Cendres Volcan.







- Altitude de l'aérodrome : 220 ft
- Code IATA : CWL
- Voir les cartes d'approche


EGFF - Cardiff Rhoose

DERNIER METAR :
  • 271250Z AUTO 27018KT 9999 SCT016 15/10 Q1012

METARs EXPIRÉS :
  • 271220Z AUTO 27017KT 9999 SCT016 15/10 Q1012
  • 271150Z AUTO 27016KT 9999 FEW020 15/10 Q1012
  • 271120Z AUTO 27018KT 9999 SCT020 15/09 Q1012
  • 271050Z AUTO 27017KT 9999 SCT021 15/09 Q1012
  • 271020Z AUTO 26017KT 9999 SCT021 15/09 Q1012
  • 270950Z AUTO 28015KT 9999 BKN019 15/10 Q1012

TAF TAF EGFF
Valide du 27 à 12h jusqu'au 28 à 12h UTC


271054Z 2712/2812 28017G27KT 9999 SCT030
TEMPO 2712/2722 7000 SHRA
PROB30
TEMPO 2715/2720 3000 +SHRA BKN014 BKN020CB
BECMG 2718/2721 30009KT
PROB30
TEMPO 2807/2811 7000 SHRA BKN014
ATIS : +44 1446 729 319
Pas de NOTAMs connus pour ce terrain.



MET'MAP, la Météo Aéronautique d'un coup d'oeil ! - Copyright ORBIFLY Décembre 2007 - Disclaimer

ORBIFLY MET'MAP TEAM :

Programmation & Développement : Alexandra Zaïnal
Conception & Développement : Baudouin d'Aumeries
Co-Programmation & Développement : Marc-Olivier Méhu
Soutien technique & logistique : Manuel Goepfert

Contact : metmap@orbifly.com




SOURCES & CREDITS :

   NOAA